KLGU/LGU METAR and TAF weather

Enter ICAO airport designator
Station Type Date Time Source
KLGU METAR 2019/05/21 21:30 UTC NOAA

KLGU 212130Z AUTO 36012KT 10SM -RA BKN016 BKN031 OVC041 08/06 A2960 RMK AO2 P0000 T00830056


Station Type Date Time Source
KLGU Decoded METAR 2019/05/21 21:30 UTC NOAA

LOGAN CACHE AIRPORT, UT, United States (KLGU) 41-47N 111-51W 1355M
May 21, 2019 - 05:30 PM EDT / 2019.05.21 2130 UTC
Wind: from the N (360 degrees) at 14 MPH (12 KT):0
Visibility: 10 mile(s):0
Sky conditions: overcast
Weather: light rain
Precipitation last hour: A trace
Temperature: 46.9 F (8.3 C)
Dew Point: 42.1 F (5.6 C)
Relative Humidity: 83%
Pressure (altimeter): 29.6 in. Hg (1002 hPa)
ob: KLGU 212130Z AUTO 36012KT 10SM -RA BKN016 BKN031 OVC041 08/06 A2960 RMK AO2 P0000 T00830056
cycle: 21

Station Type Date Time Source
KLGU TAF 2019/05/21 18:36 UTC NOAA

TAF KLGU 211735Z 2118/2218 24009KT P6SM -RA BKN040
FM212300 31007KT P6SM VCSH BKN050
FM220300 VRB04KT P6SM SCT040 BKN060
FM221200 35008KT P6SM -RA BKN040

Example: see airport list